MAPA DE AEROPUERTO

INFORMACIÓN METAR y TAF


Deprecated: The each() function is deprecated. This message will be suppressed on further calls in /home/customer/www/clickair-va.com/public_html/VAM/vam/helpers/get_metar.php on line 20
METAR FOR FMSD
ADDS - METARS form results

(0338 UTC 25 May 2022)
Data provider http://aviationweather.gov/metar/data/
 
METAR text: FMSD 250300Z 26001KT 9999 SCT033 20/18 Q1016
Conditions at: FMSD (FT. DAUPHIN/TOLA, MG) observed 0300 UTC 25 May 2022
Temperature: 20.0°C (68°F)
Dewpoint: 18.0°C (64°F) [RH = 88%]
Pressure (altimeter): 30.00 inches Hg (1016.0 mb)
Winds: from the W (260 degrees) at 1 MPH (1 knots; 0.5 m/s)
Visibility: 6 or more miles (10+ km)
Ceiling: at least 12,000 feet AGL
Clouds: scattered clouds at 3300 feet AGL
Weather: no significant weather observed at this time

Forecast for: FMSD (FT. DAUPHIN/TOLA, MG)
Text: TAF FMSD 242300Z 2500/2524 06008KT 9999 FEW016
Forecast period: 0000 UTC 25 May 2022 to 0000 UTC 26 May 2022
Forecast type: FROM: standard forecast or significant change
Winds: from the ENE (60 degrees) at 9 MPH (8 knots; 4.1 m/s)
Visibility: 6 or more miles (10+ km)
Ceiling: at least 12,000 feet AGL
Clouds: few clouds at 1600 feet AGL
Weather: no significant weather forecast for this period